This is the latest recevied weather packets stored in our database for station/object HS6TUX-4. If no packets are shown the sender has not sent any weather packets the latest 1 day(s).
| Time | Temp. | Humidity | Pressure | Rain* | Wind** | Luminosity | Snow |
|---|---|---|---|---|---|---|---|
| 1777990124 | 30° C | 99% | 727 hPa | - | 0 m/s | 0 W/m² | - |
| 1777989196 | 30.56° C | 99% | 728 hPa | - | 0 m/s | 0 W/m² | - |
| 1777988268 | 31.11° C | 99% | 729 hPa | - | 0 m/s | 0 W/m² | - |
| 1777987339 | 31.67° C | 99% | 729 hPa | - | 0 m/s | 0 W/m² | - |
| 1777986411 | 31.67° C | 99% | 729 hPa | - | 0 m/s | 0 W/m² | - |
| 1777985483 | 32.22° C | 99% | 730 hPa | - | 0 m/s | 0 W/m² | - |
| 1777984555 | 32.78° C | 99% | 730 hPa | - | 0 m/s | 0 W/m² | - |
| 1777983627 | 32.78° C | 99% | 731 hPa | - | 0 m/s | 0 W/m² | - |
| 1777982699 | 33.33° C | 99% | 731 hPa | - | 0 m/s | 0 W/m² | - |
| 1777981770 | 33.33° C | 99% | 731 hPa | - | 0 m/s | 0 W/m² | - |
| 1777980841 | 33.89° C | 99% | 732 hPa | - | 0 m/s | 1 W/m² | - |
| 1777979912 | 34.44° C | 96% | 733 hPa | - | 0 m/s | 3 W/m² | - |
| 1777978985 | 35° C | 92% | 733 hPa | - | 0 m/s | 4 W/m² | - |
| 1777978056 | 35° C | 91% | 733 hPa | - | 0 m/s | 3 W/m² | - |
| 1777977128 | 35.56° C | 88% | 733 hPa | - | 0 m/s | 5 W/m² | - |
| 1777976200 | 36.11° C | 85% | 734 hPa | - | 0 m/s | 9 W/m² | - |
| 1777975272 | 36.67° C | 88% | 735 hPa | - | 0 m/s | 12 W/m² | - |
| 1777974343 | 37.22° C | 88% | 736 hPa | - | 0 m/s | 13 W/m² | - |
| 1777973415 | 38.33° C | 86% | 737 hPa | - | 0 m/s | 14 W/m² | - |
| 1777972487 | 37.22° C | 88% | 735 hPa | - | 0 m/s | 16 W/m² | - |
| 1777971559 | 38.33° C | 86% | 737 hPa | - | 0 m/s | 17 W/m² | - |
| 1777970631 | 39.44° C | 82% | 738 hPa | - | 0 m/s | 18 W/m² | - |
| 1777969703 | 37.78° C | 85% | 736 hPa | - | 0 m/s | 21 W/m² | - |
| 1777968775 | 39.44° C | 83% | 738 hPa | - | 0 m/s | 24 W/m² | - |
| 1777967846 | 39.44° C | 84% | 738 hPa | - | 0 m/s | 25 W/m² | - |
* Rain since midnight (hover to see other rain measurements)
** Current wind speed in m/s (hover to see current wind gust speed)